createdAt,value
2023-09-25T00:00:37.276Z,16.52
2023-09-25T00:03:05.594Z,16.41
2023-09-25T00:05:33.053Z,16.34
2023-09-25T00:08:00.281Z,16.32
2023-09-25T00:10:27.475Z,16.16
2023-09-25T00:12:54.559Z,16.15
2023-09-25T00:15:21.665Z,16.25
2023-09-25T00:17:50.183Z,16.28
2023-09-25T00:20:21.287Z,16.14
2023-09-25T00:22:48.341Z,16.11
2023-09-25T00:25:15.344Z,16.07
2023-09-25T00:27:42.431Z,15.98
2023-09-25T00:30:10.743Z,15.98
2023-09-25T00:32:38.532Z,16.02
2023-09-25T00:35:11.287Z,16.07
2023-09-25T00:37:39.951Z,16.17
2023-09-25T00:40:22.772Z,16.20
2023-09-25T00:42:51.617Z,16.23
2023-09-25T00:45:18.797Z,16.17
2023-09-25T00:47:45.918Z,16.10
2023-09-25T00:50:13.986Z,16.10
2023-09-25T00:52:45.649Z,16.08
2023-09-25T00:55:17.647Z,15.98
2023-09-25T00:57:50.080Z,15.91
2023-09-25T01:00:19.409Z,15.91
2023-09-25T01:02:48.852Z,15.95
2023-09-25T01:05:16.489Z,15.98
2023-09-25T01:07:43.670Z,16.02
2023-09-25T01:10:16.778Z,15.99
2023-09-25T01:12:45.885Z,16.03
2023-09-25T01:15:15.498Z,15.83
2023-09-25T01:17:44.287Z,15.73
2023-09-25T01:20:18.715Z,15.71
2023-09-25T01:22:48.446Z,15.72
2023-09-25T01:25:17.452Z,15.78
2023-09-25T01:27:48.790Z,15.83
2023-09-25T01:30:17.374Z,15.79
2023-09-25T01:32:46.732Z,15.86
2023-09-25T01:35:17.452Z,15.87
2023-09-25T01:37:46.247Z,15.86
2023-09-25T01:40:14.998Z,15.86
2023-09-25T01:42:42.221Z,15.80
2023-09-25T01:45:10.199Z,15.79
2023-09-25T01:47:38.548Z,15.77
2023-09-25T01:50:06.308Z,15.81
2023-09-25T01:52:33.365Z,15.83
2023-09-25T01:55:00.405Z,15.88
2023-09-25T01:57:28.740Z,15.96
2023-09-25T01:59:55.898Z,15.94
2023-09-25T02:02:22.900Z,15.96
2023-09-25T02:04:50.334Z,16.00
2023-09-25T02:07:19.878Z,16.00
2023-09-25T02:09:47.369Z,16.06
2023-09-25T02:12:14.411Z,16.06
2023-09-25T02:14:41.588Z,15.99
2023-09-25T02:17:08.754Z,15.98
2023-09-25T02:19:36.215Z,15.95
2023-09-25T02:22:07.781Z,15.88
2023-09-25T02:24:35.902Z,15.69
2023-09-25T02:27:02.981Z,15.66
2023-09-25T02:29:31.164Z,15.67
2023-09-25T02:31:58.350Z,15.69
2023-09-25T02:34:25.898Z,15.56
2023-09-25T02:36:52.903Z,15.49
2023-09-25T02:39:19.966Z,15.47
2023-09-25T02:41:47.074Z,15.37
2023-09-25T02:44:14.164Z,15.28
2023-09-25T02:46:41.226Z,15.28
2023-09-25T02:49:08.359Z,15.35
2023-09-25T02:51:35.499Z,15.29
2023-09-25T02:54:02.774Z,15.33
2023-09-25T02:56:30.630Z,15.29
2023-09-25T02:58:58.993Z,15.29
2023-09-25T03:01:26.080Z,15.19
2023-09-25T03:03:53.293Z,15.08
2023-09-25T03:06:20.583Z,15.02
2023-09-25T03:08:48.015Z,15.01
2023-09-25T03:11:15.308Z,15.03
2023-09-25T03:13:42.553Z,15.13
2023-09-25T03:16:14.770Z,15.22
2023-09-25T03:18:42.851Z,15.27
2023-09-25T03:21:15.006Z,15.28
2023-09-25T03:23:42.621Z,15.34
2023-09-25T03:26:17.253Z,15.33
2023-09-25T03:28:45.706Z,15.38
2023-09-25T03:31:14.040Z,15.40
2023-09-25T03:33:41.998Z,15.37
2023-09-25T03:36:10.094Z,15.32
2023-09-25T03:38:38.474Z,15.24
2023-09-25T03:41:06.912Z,15.09
2023-09-25T03:43:34.143Z,15.15
2023-09-25T03:46:03.697Z,15.22
2023-09-25T03:48:32.156Z,15.29
2023-09-25T03:50:59.322Z,15.14
2023-09-25T03:53:26.430Z,15.13
2023-09-25T03:55:53.761Z,15.10
2023-09-25T03:58:21.863Z,15.06
2023-09-25T04:00:49.149Z,15.01
2023-09-25T04:03:16.427Z,14.97
2023-09-25T04:05:43.635Z,14.97
2023-09-25T04:08:10.788Z,15.00
2023-09-25T04:10:39.130Z,15.07
2023-09-25T04:13:06.208Z,15.10
2023-09-25T04:15:33.920Z,15.04
2023-09-25T04:18:01.875Z,15.02
2023-09-25T04:20:29.514Z,14.96
2023-09-25T04:22:59.965Z,15.01
2023-09-25T04:25:28.864Z,15.08
2023-09-25T04:27:57.018Z,15.13
2023-09-25T04:30:25.223Z,15.03
2023-09-25T04:32:56.384Z,15.01
2023-09-25T04:35:25.224Z,14.83
2023-09-25T04:37:52.876Z,14.78
2023-09-25T04:40:26.397Z,14.83
2023-09-25T04:42:54.129Z,14.93
2023-09-25T04:45:21.668Z,14.94
2023-09-25T04:47:50.002Z,14.85
2023-09-25T04:50:17.260Z,14.89
2023-09-25T04:52:47.120Z,14.98
2023-09-25T04:55:15.087Z,14.91
2023-09-25T04:57:46.791Z,14.85
2023-09-25T05:00:23.413Z,14.87
2023-09-25T05:02:51.502Z,14.94
2023-09-25T05:05:18.996Z,14.95
2023-09-25T05:07:50.609Z,14.96
2023-09-25T05:10:20.380Z,14.82
2023-09-25T05:12:47.544Z,14.68
2023-09-25T05:15:16.095Z,14.61
2023-09-25T05:17:44.882Z,14.63
2023-09-25T05:20:17.698Z,14.67
2023-09-25T05:22:47.674Z,14.73
2023-09-25T05:25:15.514Z,14.76
2023-09-25T05:27:48.320Z,14.80
2023-09-25T05:30:18.629Z,14.84
2023-09-25T05:32:51.459Z,14.95
2023-09-25T05:35:20.492Z,14.99
2023-09-25T05:37:49.750Z,15.05
2023-09-25T05:40:18.448Z,14.96
2023-09-25T05:42:49.802Z,14.91
2023-09-25T05:45:19.249Z,15.00
2023-09-25T05:47:46.610Z,15.10
2023-09-25T05:50:14.717Z,15.17
2023-09-25T05:52:42.109Z,15.26
2023-09-25T05:55:10.132Z,15.30
2023-09-25T05:57:37.779Z,15.27
2023-09-25T06:00:13.776Z,15.23
2023-09-25T06:02:43.376Z,15.23
2023-09-25T06:05:15.142Z,15.24
2023-09-25T06:07:46.239Z,15.30
2023-09-25T06:10:13.670Z,15.33
2023-09-25T06:12:41.309Z,15.40
2023-09-25T06:15:13.012Z,15.31
2023-09-25T06:17:41.881Z,15.35
2023-09-25T06:20:18.278Z,15.43
2023-09-25T06:22:47.631Z,15.49
2023-09-25T06:25:18.702Z,15.60
2023-09-25T06:27:49.427Z,15.71
2023-09-25T06:30:17.924Z,15.83
2023-09-25T06:32:45.456Z,15.91
2023-09-25T06:35:13.723Z,16.00
2023-09-25T06:37:41.029Z,16.07
2023-09-25T06:40:11.999Z,16.12
2023-09-25T06:42:40.951Z,16.27
2023-09-25T06:45:10.019Z,16.37
2023-09-25T06:47:39.481Z,16.53
2023-09-25T06:50:07.152Z,16.72
2023-09-25T06:52:34.861Z,16.90
2023-09-25T06:55:02.155Z,16.99
2023-09-25T06:57:32.695Z,17.02
2023-09-25T07:00:01.514Z,17.00
2023-09-25T07:02:33.855Z,16.99
2023-09-25T07:05:01.238Z,17.02
2023-09-25T07:07:30.945Z,17.12
2023-09-25T07:09:58.380Z,17.19
2023-09-25T07:12:27.536Z,17.25
2023-09-25T07:14:58.226Z,17.40
2023-09-25T07:17:26.063Z,17.58
2023-09-25T07:19:54.349Z,17.64
2023-09-25T07:22:22.080Z,17.72
2023-09-25T07:24:49.960Z,17.82
2023-09-25T07:27:17.729Z,17.91
2023-09-25T07:29:48.522Z,17.91
2023-09-25T07:32:17.113Z,17.89
2023-09-25T07:34:45.055Z,17.87
2023-09-25T07:37:14.032Z,17.87
2023-09-25T07:39:41.648Z,17.85
2023-09-25T07:42:09.263Z,17.88
2023-09-25T07:44:38.017Z,17.93
2023-09-25T07:47:12.080Z,18.01
2023-09-25T07:49:46.224Z,18.11
2023-09-25T07:52:19.498Z,18.14
2023-09-25T07:54:50.758Z,18.11
2023-09-25T07:57:20.805Z,18.15
2023-09-25T07:59:49.117Z,18.15
2023-09-25T08:02:22.115Z,18.18
2023-09-25T08:04:50.581Z,18.23
2023-09-25T08:07:20.050Z,18.31
2023-09-25T08:09:48.531Z,18.39
2023-09-25T08:12:16.165Z,18.57
2023-09-25T08:14:43.452Z,18.67
2023-09-25T08:17:10.595Z,18.77
2023-09-25T08:19:37.850Z,18.77
2023-09-25T08:22:04.978Z,18.84
2023-09-25T08:24:32.337Z,19.05
2023-09-25T08:27:01.100Z,19.35
2023-09-25T08:29:28.734Z,19.58
2023-09-25T08:31:56.363Z,19.68
2023-09-25T08:34:23.872Z,19.66
2023-09-25T08:36:51.144Z,19.66
2023-09-25T08:39:18.876Z,19.78
2023-09-25T08:41:47.655Z,19.86
2023-09-25T08:44:18.045Z,19.87
2023-09-25T08:46:45.911Z,19.81
2023-09-25T08:49:13.431Z,19.77
2023-09-25T08:51:41.158Z,19.75
2023-09-25T08:54:09.582Z,19.81
2023-09-25T08:56:38.134Z,19.86
2023-09-25T08:59:05.569Z,19.92
2023-09-25T09:01:33.224Z,19.97
2023-09-25T09:04:01.041Z,20.06
2023-09-25T09:06:28.522Z,20.17
2023-09-25T09:08:58.508Z,20.30
2023-09-25T09:11:26.168Z,20.43
2023-09-25T09:13:53.358Z,20.41
2023-09-25T09:16:20.964Z,20.50
2023-09-25T09:18:49.201Z,20.58
2023-09-25T09:21:28.672Z,20.55
2023-09-25T09:23:58.798Z,20.59
2023-09-25T09:26:27.009Z,20.67
2023-09-25T09:28:57.201Z,20.65
2023-09-25T09:31:24.307Z,20.65
2023-09-25T09:33:56.430Z,20.61
2023-09-25T09:36:24.782Z,20.57
2023-09-25T09:38:53.452Z,20.48
2023-09-25T09:41:20.702Z,20.45
2023-09-25T09:43:48.600Z,20.57
2023-09-25T09:46:17.346Z,20.80
2023-09-25T09:48:47.947Z,20.92
2023-09-25T09:51:19.467Z,21.03
2023-09-25T09:53:47.124Z,21.19
2023-09-25T09:56:16.941Z,21.29
2023-09-25T09:58:44.433Z,21.35
2023-09-25T10:01:12.186Z,21.39
2023-09-25T10:03:40.306Z,21.37
2023-09-25T10:06:08.333Z,21.45
2023-09-25T10:08:35.706Z,21.51
2023-09-25T10:11:21.924Z,21.54
2023-09-25T10:13:49.056Z,21.82
2023-09-25T10:16:17.132Z,21.95
2023-09-25T10:18:44.666Z,22.03
2023-09-25T10:21:15.396Z,22.10
2023-09-25T10:23:55.563Z,22.11
2023-09-25T10:26:25.727Z,22.08
2023-09-25T10:29:13.685Z,22.08
2023-09-25T10:31:47.049Z,22.25
2023-09-25T10:34:14.537Z,22.29
2023-09-25T10:36:43.935Z,22.45
2023-09-25T10:39:14.689Z,22.57
2023-09-25T10:41:44.165Z,22.62
2023-09-25T10:44:11.397Z,22.69
2023-09-25T10:46:38.602Z,22.76
2023-09-25T10:49:12.115Z,22.82
2023-09-25T10:51:39.700Z,22.73
2023-09-25T10:54:07.010Z,22.68
2023-09-25T10:56:34.495Z,22.70
2023-09-25T10:59:02.829Z,22.81
2023-09-25T11:01:32.397Z,22.79
2023-09-25T11:04:01.706Z,22.72
2023-09-25T11:06:30.347Z,22.75
2023-09-25T11:09:12.974Z,22.85
2023-09-25T11:11:42.158Z,22.89
2023-09-25T11:14:09.611Z,22.99
2023-09-25T11:16:37.424Z,23.12
2023-09-25T11:19:12.107Z,23.05
2023-09-25T11:21:41.329Z,22.95
2023-09-25T11:24:10.969Z,23.00
2023-09-25T11:26:39.234Z,23.04
2023-09-25T11:29:07.857Z,23.08
2023-09-25T11:31:50.163Z,23.11
2023-09-25T11:34:24.206Z,23.25
2023-09-25T11:36:51.400Z,23.34
2023-09-25T11:39:18.649Z,23.32
2023-09-25T11:41:46.982Z,23.39
2023-09-25T11:44:15.344Z,23.45
2023-09-25T11:46:43.894Z,23.58
2023-09-25T11:49:13.441Z,23.62
2023-09-25T11:51:41.312Z,23.67
2023-09-25T11:54:08.950Z,23.70
2023-09-25T11:56:36.276Z,23.65
2023-09-25T11:59:03.366Z,23.67
2023-09-25T12:01:30.585Z,23.65
2023-09-25T12:03:58.532Z,23.68
2023-09-25T12:06:28.009Z,23.65
2023-09-25T12:08:56.371Z,23.67
2023-09-25T12:11:23.636Z,23.65
2023-09-25T12:13:51.511Z,23.64
2023-09-25T12:16:19.901Z,23.55
2023-09-25T12:18:48.181Z,23.45
2023-09-25T12:21:15.606Z,23.38
2023-09-25T12:23:46.789Z,23.35
2023-09-25T12:26:16.269Z,23.45
2023-09-25T12:28:44.040Z,23.63
2023-09-25T12:31:11.373Z,23.68
2023-09-25T12:33:38.675Z,23.71
2023-09-25T12:36:06.269Z,23.80
2023-09-25T12:38:33.375Z,23.89
2023-09-25T12:41:00.553Z,24.01
2023-09-25T12:43:27.752Z,24.07
2023-09-25T12:45:55.409Z,23.98
2023-09-25T12:48:25.446Z,23.92
2023-09-25T12:50:53.078Z,23.86
2023-09-25T12:53:20.524Z,23.81
2023-09-25T12:55:47.624Z,23.77
2023-09-25T12:58:15.043Z,23.84
2023-09-25T13:00:42.278Z,23.92
2023-09-25T13:03:10.049Z,23.94
2023-09-25T13:05:37.562Z,23.85
2023-09-25T13:08:05.126Z,23.88
2023-09-25T13:10:32.607Z,23.88
2023-09-25T13:12:59.846Z,23.92
2023-09-25T13:15:27.385Z,24.09
2023-09-25T13:17:54.776Z,24.17
2023-09-25T13:20:22.432Z,24.23
2023-09-25T13:22:50.138Z,24.26
2023-09-25T13:25:17.311Z,24.23
2023-09-25T13:27:51.114Z,24.18
2023-09-25T13:30:20.479Z,24.26
2023-09-25T13:32:48.310Z,24.31
2023-09-25T13:35:15.915Z,24.34
2023-09-25T13:37:44.058Z,24.33
2023-09-25T13:40:12.522Z,24.33
2023-09-25T13:42:39.969Z,24.44
2023-09-25T13:45:08.283Z,24.38
2023-09-25T13:47:35.975Z,24.27
2023-09-25T13:50:03.374Z,24.24
2023-09-25T13:52:30.928Z,24.23
2023-09-25T13:54:58.596Z,24.23
2023-09-25T13:57:26.014Z,24.26
2023-09-25T13:59:53.347Z,24.27
2023-09-25T14:02:20.557Z,24.33
2023-09-25T14:04:48.684Z,24.33
2023-09-25T14:07:15.995Z,24.29
2023-09-25T14:09:43.257Z,24.29
2023-09-25T14:12:10.581Z,24.23
2023-09-25T14:14:46.982Z,24.07
2023-09-25T14:17:14.488Z,24.08
2023-09-25T14:19:41.689Z,24.05
2023-09-25T14:22:08.896Z,24.11
2023-09-25T14:24:36.217Z,24.12
2023-09-25T14:27:03.901Z,24.05
2023-09-25T14:29:32.449Z,23.92
2023-09-25T14:32:00.897Z,23.79
2023-09-25T14:34:28.003Z,23.65
2023-09-25T14:36:55.276Z,23.68
2023-09-25T14:39:29.723Z,23.86
2023-09-25T14:41:57.577Z,23.95
2023-09-25T14:44:24.580Z,23.91
2023-09-25T14:46:52.699Z,23.89
2023-09-25T14:49:20.069Z,23.92
2023-09-25T14:51:47.534Z,23.89
2023-09-25T14:54:15.385Z,23.83
2023-09-25T14:56:42.501Z,23.90
2023-09-25T14:59:09.653Z,23.95
2023-09-25T15:01:36.987Z,23.68
2023-09-25T15:04:05.377Z,23.41
2023-09-25T15:06:32.627Z,23.44
2023-09-25T15:08:59.801Z,23.59
2023-09-25T15:11:27.089Z,23.70
2023-09-25T15:13:54.149Z,23.79
2023-09-25T15:16:21.394Z,23.94
2023-09-25T15:18:48.805Z,24.01
2023-09-25T15:21:15.947Z,23.93
2023-09-25T15:23:43.178Z,23.86
2023-09-25T15:26:10.802Z,23.78
2023-09-25T15:28:38.071Z,23.83
2023-09-25T15:31:05.350Z,23.84
2023-09-25T15:33:32.603Z,23.84
2023-09-25T15:35:59.731Z,23.76
2023-09-25T15:38:26.927Z,23.73
2023-09-25T15:40:53.990Z,23.75
2023-09-25T15:43:21.273Z,23.75
2023-09-25T15:45:48.497Z,23.73
2023-09-25T15:48:15.638Z,23.82
2023-09-25T15:50:42.837Z,23.82
2023-09-25T15:53:10.262Z,23.75
2023-09-25T15:55:37.666Z,23.67
2023-09-25T15:58:10.756Z,23.67
2023-09-25T16:00:38.936Z,23.62
2023-09-25T16:03:06.407Z,23.48
2023-09-25T16:05:33.860Z,23.38
2023-09-25T16:08:01.005Z,23.25
2023-09-25T16:10:28.359Z,23.19
2023-09-25T16:12:55.598Z,23.22
2023-09-25T16:15:23.000Z,23.31
2023-09-25T16:17:50.272Z,23.21
2023-09-25T16:20:17.682Z,23.07
2023-09-25T16:22:44.964Z,22.97
2023-09-25T16:25:12.234Z,22.86
2023-09-25T16:27:39.690Z,22.71
2023-09-25T16:30:07.436Z,22.70
2023-09-25T16:32:34.755Z,22.64
2023-09-25T16:35:02.018Z,22.55
2023-09-25T16:37:30.290Z,22.61
2023-09-25T16:39:57.566Z,22.59
2023-09-25T16:42:25.034Z,22.50
2023-09-25T16:44:52.064Z,22.38
2023-09-25T16:47:20.744Z,22.28
2023-09-25T16:49:50.085Z,22.17
2023-09-25T16:52:17.393Z,22.11
2023-09-25T16:54:44.617Z,22.07
2023-09-25T16:57:11.706Z,22.02
2023-09-25T16:59:38.878Z,21.89
2023-09-25T17:02:07.145Z,21.81
2023-09-25T17:04:34.566Z,21.70
2023-09-25T17:07:01.916Z,21.65
2023-09-25T17:09:29.164Z,21.63
2023-09-25T17:11:56.248Z,21.59
2023-09-25T17:14:23.643Z,21.46
2023-09-25T17:16:50.804Z,21.37
2023-09-25T17:19:17.991Z,21.35
2023-09-25T17:21:45.102Z,21.33
2023-09-25T17:24:12.163Z,21.25
2023-09-25T17:26:39.349Z,21.20
2023-09-25T17:29:06.421Z,21.19
2023-09-25T17:31:33.792Z,21.09
2023-09-25T17:34:01.068Z,21.03
2023-09-25T17:36:28.297Z,20.99
2023-09-25T17:38:55.328Z,20.95
2023-09-25T17:41:22.834Z,20.87
2023-09-25T17:43:50.052Z,20.81
2023-09-25T17:46:17.578Z,20.77
2023-09-25T17:48:45.027Z,20.78
2023-09-25T17:51:12.572Z,20.84
2023-09-25T17:53:39.953Z,20.81
2023-09-25T17:56:09.746Z,20.75
2023-09-25T17:58:38.213Z,20.70
2023-09-25T18:01:05.721Z,20.69
2023-09-25T18:03:33.068Z,20.64
2023-09-25T18:06:00.348Z,20.51
2023-09-25T18:08:27.594Z,20.41
2023-09-25T18:10:54.956Z,20.35
2023-09-25T18:13:22.521Z,20.30
2023-09-25T18:15:50.883Z,20.20
2023-09-25T18:18:18.458Z,20.15
2023-09-25T18:20:46.145Z,20.06
2023-09-25T18:23:14.636Z,20.01
2023-09-25T18:25:43.356Z,20.04
2023-09-25T18:28:10.887Z,20.06
2023-09-25T18:30:38.476Z,20.06
2023-09-25T18:33:10.360Z,19.93
2023-09-25T18:35:40.233Z,19.88
2023-09-25T18:38:07.808Z,19.74
2023-09-25T18:40:36.604Z,19.61
2023-09-25T18:43:07.652Z,19.67
2023-09-25T18:45:35.195Z,19.74
2023-09-25T18:48:02.851Z,19.74
2023-09-25T18:50:30.190Z,19.75
2023-09-25T18:52:57.419Z,19.66
2023-09-25T18:55:25.007Z,19.62
2023-09-25T18:57:52.279Z,19.64
2023-09-25T19:00:19.517Z,19.62
2023-09-25T19:02:46.931Z,19.61
2023-09-25T19:05:14.285Z,19.63
2023-09-25T19:07:42.429Z,19.57
2023-09-25T19:10:13.132Z,19.42
2023-09-25T19:12:40.676Z,19.41
2023-09-25T19:15:08.257Z,19.44
2023-09-25T19:17:35.397Z,19.50
2023-09-25T19:20:02.951Z,19.55
2023-09-25T19:22:32.554Z,19.60
2023-09-25T19:24:59.964Z,19.60
2023-09-25T19:27:27.373Z,19.55
2023-09-25T19:29:54.829Z,19.39
2023-09-25T19:32:25.037Z,19.35
2023-09-25T19:34:52.461Z,19.34
2023-09-25T19:37:22.297Z,19.32
2023-09-25T19:39:50.132Z,19.28
2023-09-25T19:42:18.488Z,19.28
2023-09-25T19:44:45.828Z,19.25
2023-09-25T19:47:13.050Z,19.19
2023-09-25T19:49:40.314Z,19.03
2023-09-25T19:52:07.494Z,18.93
2023-09-25T19:54:35.149Z,18.86
2023-09-25T19:57:06.367Z,18.88
2023-09-25T19:59:33.655Z,18.93
2023-09-25T20:02:01.250Z,18.96
2023-09-25T20:04:28.645Z,18.89
2023-09-25T20:06:56.908Z,18.87
2023-09-25T20:09:24.356Z,18.89
2023-09-25T20:11:51.681Z,18.73
2023-09-25T20:14:20.847Z,18.74
2023-09-25T20:16:48.624Z,18.72
2023-09-25T20:19:16.548Z,18.52
2023-09-25T20:21:44.012Z,18.38
2023-09-25T20:24:11.385Z,18.32
2023-09-25T20:26:39.614Z,18.28
2023-09-25T20:29:07.165Z,18.30
2023-09-25T20:31:34.544Z,18.44
2023-09-25T20:34:02.271Z,18.50
2023-09-25T20:36:29.708Z,18.63
2023-09-25T20:38:57.162Z,18.64
2023-09-25T20:41:24.568Z,18.69
2023-09-25T20:43:52.070Z,18.73
2023-09-25T20:46:19.739Z,18.65
2023-09-25T20:48:50.412Z,18.63
2023-09-25T20:51:17.922Z,18.56
2023-09-25T20:53:45.410Z,18.44
2023-09-25T20:56:12.801Z,18.34
2023-09-25T20:58:39.973Z,18.30
2023-09-25T21:01:08.629Z,18.38
2023-09-25T21:03:35.970Z,18.38
2023-09-25T21:06:03.403Z,18.37
2023-09-25T21:08:30.908Z,18.42
2023-09-25T21:10:59.595Z,18.42
2023-09-25T21:13:26.877Z,18.25
2023-09-25T21:15:54.105Z,18.19
2023-09-25T21:18:21.410Z,18.19
2023-09-25T21:20:49.149Z,18.00
2023-09-25T21:23:16.537Z,18.00
2023-09-25T21:25:43.898Z,17.87
2023-09-25T21:28:11.155Z,17.77
2023-09-25T21:30:41.850Z,17.82
2023-09-25T21:33:09.280Z,17.92
2023-09-25T21:35:36.365Z,18.02
2023-09-25T21:38:03.922Z,18.06
2023-09-25T21:40:31.234Z,18.06
2023-09-25T21:42:58.382Z,18.08
2023-09-25T21:45:25.738Z,18.04
2023-09-25T21:47:52.931Z,18.05
2023-09-25T21:50:20.902Z,18.06
2023-09-25T21:52:48.229Z,18.08
2023-09-25T21:55:15.555Z,17.88
2023-09-25T21:57:42.844Z,17.71
2023-09-25T22:00:11.390Z,17.71
2023-09-25T22:02:41.475Z,17.64
2023-09-25T22:05:10.819Z,17.60
2023-09-25T22:07:38.654Z,17.61
2023-09-25T22:10:06.623Z,17.66
2023-09-25T22:12:33.874Z,17.73
2023-09-25T22:15:01.509Z,17.78
2023-09-25T22:17:31.439Z,17.80
2023-09-25T22:19:58.561Z,17.70
2023-09-25T22:22:26.505Z,17.73
2023-09-25T22:24:53.700Z,17.66
2023-09-25T22:27:21.112Z,17.52
2023-09-25T22:29:48.373Z,17.46
2023-09-25T22:32:15.466Z,17.41
2023-09-25T22:34:45.679Z,17.40
2023-09-25T22:37:12.890Z,17.34
2023-09-25T22:39:40.146Z,17.46
2023-09-25T22:42:07.395Z,17.56
2023-09-25T22:44:34.615Z,17.56
2023-09-25T22:47:01.802Z,17.59
2023-09-25T22:49:29.072Z,17.60
2023-09-25T22:51:56.395Z,17.62
2023-09-25T22:54:23.739Z,17.63
2023-09-25T22:56:50.959Z,17.44
2023-09-25T22:59:18.224Z,17.30
2023-09-25T23:01:48.548Z,17.21
2023-09-25T23:04:15.852Z,17.19
2023-09-25T23:06:45.325Z,16.93
2023-09-25T23:09:15.576Z,16.96
2023-09-25T23:11:42.768Z,17.01
2023-09-25T23:14:10.852Z,17.05
2023-09-25T23:16:38.041Z,16.91
2023-09-25T23:19:05.181Z,16.94
2023-09-25T23:21:32.256Z,17.04
2023-09-25T23:23:59.642Z,17.12
2023-09-25T23:26:26.725Z,17.13
2023-09-25T23:28:53.817Z,17.14
2023-09-25T23:31:20.990Z,17.21
2023-09-25T23:33:48.594Z,17.21
2023-09-25T23:36:16.985Z,17.19
2023-09-25T23:38:45.334Z,17.22
2023-09-25T23:41:12.398Z,17.09
2023-09-25T23:43:39.593Z,16.96
2023-09-25T23:46:07.892Z,16.84
2023-09-25T23:48:35.426Z,16.76
2023-09-25T23:51:02.568Z,16.76
2023-09-25T23:53:29.643Z,16.62
2023-09-25T23:56:06.483Z,16.72
2023-09-25T23:58:33.561Z,16.84
